sensor_id;sensor_type;location;lat;lon;timestamp;pressure;altitude;pressure_sealevel;temperature;humidity
76627;BME280;65519;53.230;10.390;2023-10-08T00:00:47;101638.97;;;11.36;100.00
76627;BME280;65519;53.230;10.390;2023-10-08T00:03:21;101643.81;;;11.50;100.00
76627;BME280;65519;53.230;10.390;2023-10-08T00:05:47;101654.88;;;11.60;100.00
76627;BME280;65519;53.230;10.390;2023-10-08T00:08:14;101647.22;;;11.41;100.00
76627;BME280;65519;53.230;10.390;2023-10-08T00:10:42;101669.56;;;11.38;100.00
76627;BME280;65519;53.230;10.390;2023-10-08T00:13:10;101679.25;;;11.45;100.00
76627;BME280;65519;53.230;10.390;2023-10-08T00:15:36;101693.97;;;11.44;100.00
76627;BME280;65519;53.230;10.390;2023-10-08T00:18:05;101695.06;;;11.43;100.00
76627;BME280;65519;53.230;10.390;2023-10-08T00:20:32;101701.50;;;11.37;100.00
76627;BME280;65519;53.230;10.390;2023-10-08T00:23:08;101691.41;;;11.38;100.00
76627;BME280;65519;53.230;10.390;2023-10-08T00:25:34;101695.47;;;11.35;100.00
76627;BME280;65519;53.230;10.390;2023-10-08T00:28:07;101721.59;;;11.48;100.00
76627;BME280;65519;53.230;10.390;2023-10-08T00:30:38;101720.34;;;11.55;100.00
76627;BME280;65519;53.230;10.390;2023-10-08T00:33:04;101714.81;;;11.50;100.00
76627;BME280;65519;53.230;10.390;2023-10-08T00:35:30;101706.41;;;11.35;100.00
76627;BME280;65519;53.230;10.390;2023-10-08T00:37:56;101713.97;;;11.50;100.00
76627;BME280;65519;53.230;10.390;2023-10-08T00:40:36;101696.03;;;11.37;100.00
76627;BME280;65519;53.230;10.390;2023-10-08T00:43:04;101710.28;;;11.22;100.00
76627;BME280;65519;53.230;10.390;2023-10-08T00:45:38;101701.84;;;11.24;100.00
76627;BME280;65519;53.230;10.390;2023-10-08T00:48:12;101721.09;;;11.17;100.00
76627;BME280;65519;53.230;10.390;2023-10-08T00:50:43;101725.31;;;11.25;100.00
76627;BME280;65519;53.230;10.390;2023-10-08T00:53:10;101720.28;;;11.33;100.00
76627;BME280;65519;53.230;10.390;2023-10-08T00:55:47;101718.41;;;11.34;100.00
76627;BME280;65519;53.230;10.390;2023-10-08T00:58:29;101727.50;;;11.23;100.00
76627;BME280;65519;53.230;10.390;2023-10-08T01:00:55;101751.00;;;11.24;100.00
76627;BME280;65519;53.230;10.390;2023-10-08T01:03:26;101762.56;;;11.31;100.00
76627;BME280;65519;53.230;10.390;2023-10-08T01:05:54;101767.19;;;11.47;100.00
76627;BME280;65519;53.230;10.390;2023-10-08T01:08:20;101769.50;;;11.55;100.00
76627;BME280;65519;53.230;10.390;2023-10-08T01:11:16;101774.38;;;11.20;100.00
76627;BME280;65519;53.230;10.390;2023-10-08T01:13:42;101751.72;;;11.03;100.00
76627;BME280;65519;53.230;10.390;2023-10-08T01:16:11;101759.31;;;11.17;100.00
76627;BME280;65519;53.230;10.390;2023-10-08T01:18:37;101742.44;;;11.04;100.00
76627;BME280;65519;53.230;10.390;2023-10-08T01:21:08;101756.00;;;10.98;100.00
76627;BME280;65519;53.230;10.390;2023-10-08T01:23:35;101753.63;;;11.19;100.00
76627;BME280;65519;53.230;10.390;2023-10-08T01:26:00;101761.22;;;11.17;100.00
76627;BME280;65519;53.230;10.390;2023-10-08T01:28:36;101762.53;;;11.14;100.00
76627;BME280;65519;53.230;10.390;2023-10-08T01:31:02;101759.72;;;11.26;100.00
76627;BME280;65519;53.230;10.390;2023-10-08T01:33:30;101752.28;;;11.05;100.00
76627;BME280;65519;53.230;10.390;2023-10-08T01:35:57;101763.88;;;11.12;100.00
76627;BME280;65519;53.230;10.390;2023-10-08T01:38:31;101786.13;;;11.20;100.00
76627;BME280;65519;53.230;10.390;2023-10-08T01:40:57;101785.88;;;11.22;100.00
76627;BME280;65519;53.230;10.390;2023-10-08T01:43:28;101788.03;;;11.20;100.00
76627;BME280;65519;53.230;10.390;2023-10-08T01:45:55;101771.16;;;11.23;100.00
76627;BME280;65519;53.230;10.390;2023-10-08T01:48:21;101763.22;;;11.21;100.00
76627;BME280;65519;53.230;10.390;2023-10-08T01:50:55;101788.50;;;11.17;100.00
76627;BME280;65519;53.230;10.390;2023-10-08T01:53:21;101776.28;;;11.19;100.00
76627;BME280;65519;53.230;10.390;2023-10-08T01:55:47;101789.63;;;11.04;100.00
76627;BME280;65519;53.230;10.390;2023-10-08T01:58:17;101796.94;;;11.15;100.00
76627;BME280;65519;53.230;10.390;2023-10-08T02:00:46;101818.72;;;11.27;100.00
76627;BME280;65519;53.230;10.390;2023-10-08T02:03:14;101819.69;;;11.21;100.00
76627;BME280;65519;53.230;10.390;2023-10-08T02:05:42;101799.44;;;11.17;100.00
76627;BME280;65519;53.230;10.390;2023-10-08T02:08:08;101787.59;;;11.11;100.00
76627;BME280;65519;53.230;10.390;2023-10-08T02:10:34;101776.44;;;11.13;100.00
76627;BME280;65519;53.230;10.390;2023-10-08T02:13:01;101769.81;;;11.09;100.00
76627;BME280;65519;53.230;10.390;2023-10-08T02:15:27;101770.81;;;11.19;100.00
76627;BME280;65519;53.230;10.390;2023-10-08T02:17:53;101771.81;;;11.13;100.00
76627;BME280;65519;53.230;10.390;2023-10-08T02:20:20;101773.44;;;11.14;100.00
76627;BME280;65519;53.230;10.390;2023-10-08T02:22:47;101768.81;;;11.15;100.00
76627;BME280;65519;53.230;10.390;2023-10-08T02:25:15;101765.59;;;11.18;100.00
76627;BME280;65519;53.230;10.390;2023-10-08T02:27:41;101779.56;;;11.05;100.00
76627;BME280;65519;53.230;10.390;2023-10-08T02:30:07;101777.81;;;10.98;100.00
76627;BME280;65519;53.230;10.390;2023-10-08T02:32:35;101775.91;;;10.99;100.00
76627;BME280;65519;53.230;10.390;2023-10-08T02:35:03;101775.56;;;10.95;100.00
76627;BME280;65519;53.230;10.390;2023-10-08T02:37:28;101779.38;;;10.94;100.00
76627;BME280;65519;53.230;10.390;2023-10-08T02:39:54;101780.38;;;10.88;100.00
76627;BME280;65519;53.230;10.390;2023-10-08T02:42:20;101775.38;;;10.85;100.00
76627;BME280;65519;53.230;10.390;2023-10-08T02:44:47;101787.72;;;10.88;100.00
76627;BME280;65519;53.230;10.390;2023-10-08T02:47:13;101803.47;;;10.69;100.00
76627;BME280;65519;53.230;10.390;2023-10-08T02:49:46;101799.97;;;10.74;100.00
76627;BME280;65519;53.230;10.390;2023-10-08T02:52:14;101809.09;;;10.79;100.00
76627;BME280;65519;53.230;10.390;2023-10-08T02:54:41;101810.25;;;10.83;100.00
76627;BME280;65519;53.230;10.390;2023-10-08T02:57:06;101814.16;;;10.87;100.00
76627;BME280;65519;53.230;10.390;2023-10-08T02:59:40;101827.13;;;10.80;100.00
76627;BME280;65519;53.230;10.390;2023-10-08T03:02:12;101835.03;;;10.82;100.00
76627;BME280;65519;53.230;10.390;2023-10-08T03:04:45;101853.91;;;10.83;100.00
76627;BME280;65519;53.230;10.390;2023-10-08T03:07:14;101860.16;;;10.95;100.00
76627;BME280;65519;53.230;10.390;2023-10-08T03:09:58;101865.84;;;10.94;100.00
76627;BME280;65519;53.230;10.390;2023-10-08T03:12:32;101861.91;;;11.02;100.00
76627;BME280;65519;53.230;10.390;2023-10-08T03:15:02;101862.28;;;10.93;100.00
76627;BME280;65519;53.230;10.390;2023-10-08T03:18:03;101860.63;;;10.92;100.00
76627;BME280;65519;53.230;10.390;2023-10-08T03:20:38;101857.78;;;10.99;100.00
76627;BME280;65519;53.230;10.390;2023-10-08T03:23:04;101857.47;;;10.84;100.00
76627;BME280;65519;53.230;10.390;2023-10-08T03:25:54;101845.84;;;10.88;100.00
76627;BME280;65519;53.230;10.390;2023-10-08T03:28:35;101846.78;;;10.82;100.00
76627;BME280;65519;53.230;10.390;2023-10-08T03:31:01;101861.47;;;10.93;100.00
76627;BME280;65519;53.230;10.390;2023-10-08T03:33:44;101878.66;;;10.93;100.00
76627;BME280;65519;53.230;10.390;2023-10-08T03:36:14;101871.66;;;10.97;100.00
76627;BME280;65519;53.230;10.390;2023-10-08T03:38:49;101873.72;;;10.90;100.00
76627;BME280;65519;53.230;10.390;2023-10-08T03:41:21;101876.75;;;10.94;100.00
76627;BME280;65519;53.230;10.390;2023-10-08T03:43:52;101876.75;;;10.94;100.00
76627;BME280;65519;53.230;10.390;2023-10-08T03:46:21;101885.94;;;10.88;100.00
76627;BME280;65519;53.230;10.390;2023-10-08T03:48:48;101885.44;;;10.91;100.00
76627;BME280;65519;53.230;10.390;2023-10-08T03:51:17;101896.00;;;10.87;100.00
76627;BME280;65519;53.230;10.390;2023-10-08T03:53:45;101885.78;;;10.94;100.00
76627;BME280;65519;53.230;10.390;2023-10-08T03:56:29;101895.06;;;10.82;100.00
76627;BME280;65519;53.230;10.390;2023-10-08T03:58:59;101899.81;;;10.86;100.00
76627;BME280;65519;53.230;10.390;2023-10-08T04:01:46;101907.75;;;10.88;100.00
76627;BME280;65519;53.230;10.390;2023-10-08T04:04:14;101916.88;;;10.82;100.00
76627;BME280;65519;53.230;10.390;2023-10-08T04:06:41;101914.28;;;10.87;100.00
76627;BME280;65519;53.230;10.390;2023-10-08T04:09:15;101917.91;;;10.92;100.00
76627;BME280;65519;53.230;10.390;2023-10-08T04:11:51;101889.94;;;10.97;100.00
76627;BME280;65519;53.230;10.390;2023-10-08T04:14:21;101906.03;;;10.70;100.00
76627;BME280;65519;53.230;10.390;2023-10-08T04:16:48;101908.25;;;10.73;100.00
76627;BME280;65519;53.230;10.390;2023-10-08T04:19:18;101921.19;;;10.66;100.00
76627;BME280;65519;53.230;10.390;2023-10-08T04:21:44;101931.50;;;10.64;100.00
76627;BME280;65519;53.230;10.390;2023-10-08T04:24:11;101920.13;;;10.67;100.00
76627;BME280;65519;53.230;10.390;2023-10-08T04:26:40;101902.09;;;10.66;100.00
76627;BME280;65519;53.230;10.390;2023-10-08T04:29:06;101918.94;;;10.63;100.00
76627;BME280;65519;53.230;10.390;2023-10-08T04:31:35;101927.09;;;10.75;100.00
76627;BME280;65519;53.230;10.390;2023-10-08T04:34:04;101924.38;;;10.63;100.00
76627;BME280;65519;53.230;10.390;2023-10-08T04:36:43;101913.09;;;10.71;100.00
76627;BME280;65519;53.230;10.390;2023-10-08T04:39:14;101906.97;;;10.64;100.00
76627;BME280;65519;53.230;10.390;2023-10-08T04:41:41;101909.22;;;10.67;100.00
76627;BME280;65519;53.230;10.390;2023-10-08T04:44:10;101910.50;;;10.76;100.00
76627;BME280;65519;53.230;10.390;2023-10-08T04:46:44;101926.06;;;10.64;100.00
76627;BME280;65519;53.230;10.390;2023-10-08T04:49:16;101932.91;;;10.78;100.00
76627;BME280;65519;53.230;10.390;2023-10-08T04:52:03;101942.06;;;10.60;100.00
76627;BME280;65519;53.230;10.390;2023-10-08T04:54:42;101957.59;;;10.60;100.00
76627;BME280;65519;53.230;10.390;2023-10-08T04:57:17;101969.91;;;10.51;100.00
76627;BME280;65519;53.230;10.390;2023-10-08T04:59:43;101979.16;;;10.50;100.00
76627;BME280;65519;53.230;10.390;2023-10-08T05:02:10;101979.66;;;10.47;100.00
76627;BME280;65519;53.230;10.390;2023-10-08T05:04:48;101972.06;;;10.49;100.00
76627;BME280;65519;53.230;10.390;2023-10-08T05:07:20;101973.16;;;10.59;100.00
76627;BME280;65519;53.230;10.390;2023-10-08T05:09:52;101978.22;;;10.56;100.00
76627;BME280;65519;53.230;10.390;2023-10-08T05:12:36;101971.94;;;10.55;100.00
76627;BME280;65519;53.230;10.390;2023-10-08T05:15:36;101970.97;;;10.50;100.00
76627;BME280;65519;53.230;10.390;2023-10-08T05:18:07;101960.56;;;10.58;100.00
76627;BME280;65519;53.230;10.390;2023-10-08T05:20:59;101950.84;;;10.51;100.00
76627;BME280;65519;53.230;10.390;2023-10-08T05:23:25;101953.47;;;10.57;100.00
76627;BME280;65519;53.230;10.390;2023-10-08T05:25:54;101953.44;;;10.69;100.00
76627;BME280;65519;53.230;10.390;2023-10-08T05:28:22;101959.72;;;10.70;100.00
76627;BME280;65519;53.230;10.390;2023-10-08T05:30:52;101969.69;;;10.64;100.00
76627;BME280;65519;53.230;10.390;2023-10-08T05:33:49;101977.75;;;10.59;100.00
76627;BME280;65519;53.230;10.390;2023-10-08T05:36:35;101975.13;;;10.64;100.00
76627;BME280;65519;53.230;10.390;2023-10-08T05:39:15;101980.81;;;10.51;100.00
76627;BME280;65519;53.230;10.390;2023-10-08T05:41:50;101987.56;;;10.60;100.00
76627;BME280;65519;53.230;10.390;2023-10-08T05:44:17;101992.56;;;10.63;100.00
76627;BME280;65519;53.230;10.390;2023-10-08T05:46:43;101987.34;;;10.61;100.00
76627;BME280;65519;53.230;10.390;2023-10-08T05:49:32;101996.03;;;10.47;100.00
76627;BME280;65519;53.230;10.390;2023-10-08T05:51:58;101995.19;;;10.58;100.00
76627;BME280;65519;53.230;10.390;2023-10-08T05:54:29;102009.75;;;10.52;100.00
76627;BME280;65519;53.230;10.390;2023-10-08T05:56:58;102014.28;;;10.58;100.00
76627;BME280;65519;53.230;10.390;2023-10-08T05:59:36;102018.66;;;10.59;100.00
76627;BME280;65519;53.230;10.390;2023-10-08T06:02:31;102017.72;;;10.65;100.00
76627;BME280;65519;53.230;10.390;2023-10-08T06:05:05;102025.28;;;10.63;100.00
76627;BME280;65519;53.230;10.390;2023-10-08T06:10:16;102031.09;;;10.55;100.00
76627;BME280;65519;53.230;10.390;2023-10-08T06:13:02;102032.53;;;10.46;100.00
76627;BME280;65519;53.230;10.390;2023-10-08T06:15:50;102037.22;;;10.39;100.00
76627;BME280;65519;53.230;10.390;2023-10-08T06:18:20;102049.22;;;10.38;100.00
76627;BME280;65519;53.230;10.390;2023-10-08T06:20:51;102046.94;;;10.23;100.00
76627;BME280;65519;53.230;10.390;2023-10-08T06:23:21;102054.59;;;10.14;100.00
76627;BME280;65519;53.230;10.390;2023-10-08T06:25:49;102048.94;;;10.28;100.00
76627;BME280;65519;53.230;10.390;2023-10-08T06:28:44;102056.06;;;10.29;100.00
76627;BME280;65519;53.230;10.390;2023-10-08T06:31:10;102057.25;;;10.33;100.00
76627;BME280;65519;53.230;10.390;2023-10-08T06:33:43;102057.06;;;10.46;100.00
76627;BME280;65519;53.230;10.390;2023-10-08T06:36:10;102068.66;;;10.53;100.00
76627;BME280;65519;53.230;10.390;2023-10-08T06:38:45;102071.03;;;10.61;100.00
76627;BME280;65519;53.230;10.390;2023-10-08T06:41:14;102074.38;;;10.63;100.00
76627;BME280;65519;53.230;10.390;2023-10-08T06:43:47;102082.06;;;10.54;100.00
76627;BME280;65519;53.230;10.390;2023-10-08T06:46:18;102079.13;;;10.68;100.00
76627;BME280;65519;53.230;10.390;2023-10-08T06:48:51;102092.41;;;10.76;100.00
76627;BME280;65519;53.230;10.390;2023-10-08T06:51:16;102100.59;;;10.64;100.00
76627;BME280;65519;53.230;10.390;2023-10-08T06:53:47;102108.91;;;10.69;100.00
76627;BME280;65519;53.230;10.390;2023-10-08T06:56:17;102109.16;;;10.79;100.00
76627;BME280;65519;53.230;10.390;2023-10-08T06:58:45;102109.38;;;10.78;100.00
76627;BME280;65519;53.230;10.390;2023-10-08T07:01:17;102122.56;;;10.81;100.00
76627;BME280;65519;53.230;10.390;2023-10-08T07:03:51;102118.25;;;10.73;100.00
76627;BME280;65519;53.230;10.390;2023-10-08T07:06:18;102128.50;;;10.89;100.00
76627;BME280;65519;53.230;10.390;2023-10-08T07:08:58;102128.50;;;10.89;100.00
76627;BME280;65519;53.230;10.390;2023-10-08T07:11:25;102135.25;;;10.87;100.00
76627;BME280;65519;53.230;10.390;2023-10-08T07:13:52;102136.19;;;10.92;100.00
76627;BME280;65519;53.230;10.390;2023-10-08T07:16:18;102136.78;;;10.94;100.00
76627;BME280;65519;53.230;10.390;2023-10-08T07:18:46;102141.28;;;10.89;100.00
76627;BME280;65519;53.230;10.390;2023-10-08T07:21:18;102138.56;;;11.01;100.00
76627;BME280;65519;53.230;10.390;2023-10-08T07:23:43;102142.84;;;11.08;100.00
76627;BME280;65519;53.230;10.390;2023-10-08T07:26:35;102144.03;;;11.24;100.00
76627;BME280;65519;53.230;10.390;2023-10-08T07:29:05;102143.69;;;11.32;100.00
76627;BME280;65519;53.230;10.390;2023-10-08T07:31:34;102142.25;;;11.41;100.00
76627;BME280;65519;53.230;10.390;2023-10-08T07:34:02;102144.28;;;11.34;100.00
76627;BME280;65519;53.230;10.390;2023-10-08T07:36:47;102149.72;;;11.46;100.00
76627;BME280;65519;53.230;10.390;2023-10-08T07:39:16;102154.44;;;11.50;100.00
76627;BME280;65519;53.230;10.390;2023-10-08T07:42:07;102157.31;;;11.55;100.00
76627;BME280;65519;53.230;10.390;2023-10-08T07:44:34;102162.28;;;11.58;100.00
76627;BME280;65519;53.230;10.390;2023-10-08T07:47:01;102161.69;;;11.68;100.00
76627;BME280;65519;53.230;10.390;2023-10-08T07:49:28;102165.34;;;11.62;100.00
76627;BME280;65519;53.230;10.390;2023-10-08T07:51:57;102169.97;;;11.73;100.00
76627;BME280;65519;53.230;10.390;2023-10-08T07:54:24;102176.41;;;11.67;100.00
76627;BME280;65519;53.230;10.390;2023-10-08T07:56:53;102179.88;;;11.51;100.00
76627;BME280;65519;53.230;10.390;2023-10-08T07:59:35;102186.97;;;11.63;100.00
76627;BME280;65519;53.230;10.390;2023-10-08T08:02:05;102177.25;;;11.67;100.00
76627;BME280;65519;53.230;10.390;2023-10-08T08:04:40;102180.91;;;11.73;100.00
76627;BME280;65519;53.230;10.390;2023-10-08T08:07:07;102181.75;;;11.85;100.00
76627;BME280;65519;53.230;10.390;2023-10-08T08:09:32;102182.44;;;11.92;100.00
76627;BME280;65519;53.230;10.390;2023-10-08T08:12:06;102175.66;;;11.95;100.00
76627;BME280;65519;53.230;10.390;2023-10-08T08:14:37;102187.03;;;12.03;100.00
76627;BME280;65519;53.230;10.390;2023-10-08T08:17:06;102192.25;;;12.05;100.00
76627;BME280;65519;53.230;10.390;2023-10-08T08:19:46;102188.06;;;12.14;100.00
76627;BME280;65519;53.230;10.390;2023-10-08T08:22:16;102196.38;;;12.19;100.00
76627;BME280;65519;53.230;10.390;2023-10-08T08:27:13;102193.50;;;12.26;100.00
76627;BME280;65519;53.230;10.390;2023-10-08T08:29:57;102205.47;;;12.36;100.00
76627;BME280;65519;53.230;10.390;2023-10-08T08:32:38;102200.59;;;12.38;100.00
76627;BME280;65519;53.230;10.390;2023-10-08T08:35:09;102207.22;;;12.42;100.00
76627;BME280;65519;53.230;10.390;2023-10-08T08:37:36;102208.81;;;12.55;100.00
76627;BME280;65519;53.230;10.390;2023-10-08T08:40:04;102218.13;;;12.54;100.00
76627;BME280;65519;53.230;10.390;2023-10-08T08:42:49;102214.59;;;12.70;100.00
76627;BME280;65519;53.230;10.390;2023-10-08T08:45:19;102217.50;;;12.80;100.00
76627;BME280;65519;53.230;10.390;2023-10-08T08:47:46;102225.63;;;12.92;100.00
76627;BME280;65519;53.230;10.390;2023-10-08T08:50:11;102234.59;;;12.88;100.00
76627;BME280;65519;53.230;10.390;2023-10-08T08:52:39;102229.03;;;12.99;100.00
76627;BME280;65519;53.230;10.390;2023-10-08T08:55:06;102232.72;;;13.05;100.00
76627;BME280;65519;53.230;10.390;2023-10-08T08:57:39;102229.09;;;13.16;100.00
76627;BME280;65519;53.230;10.390;2023-10-08T09:00:05;102235.72;;;13.20;100.00
76627;BME280;65519;53.230;10.390;2023-10-08T09:02:39;102237.28;;;13.33;100.00
76627;BME280;65519;53.230;10.390;2023-10-08T09:05:05;102238.81;;;13.40;100.00
76627;BME280;65519;53.230;10.390;2023-10-08T09:07:59;102240.28;;;13.48;99.47
76627;BME280;65519;53.230;10.390;2023-10-08T09:10:28;102240.81;;;13.67;100.00
76627;BME280;65519;53.230;10.390;2023-10-08T09:12:56;102255.06;;;13.85;98.45
76627;BME280;65519;53.230;10.390;2023-10-08T09:15:26;102246.16;;;13.73;93.78
76627;BME280;65519;53.230;10.390;2023-10-08T09:17:53;102248.19;;;13.83;93.22
76627;BME280;65519;53.230;10.390;2023-10-08T09:20:19;102252.81;;;14.21;93.26
76627;BME280;65519;53.230;10.390;2023-10-08T09:22:46;102255.63;;;14.26;94.41
76627;BME280;65519;53.230;10.390;2023-10-08T09:25:20;102256.47;;;14.27;90.01
76627;BME280;65519;53.230;10.390;2023-10-08T09:27:55;102254.47;;;14.22;90.85
76627;BME280;65519;53.230;10.390;2023-10-08T09:30:21;102266.34;;;14.28;87.10
76627;BME280;65519;53.230;10.390;2023-10-08T09:32:47;102256.72;;;14.25;88.12
76627;BME280;65519;53.230;10.390;2023-10-08T09:35:14;102258.06;;;14.44;88.99
76627;BME280;65519;53.230;10.390;2023-10-08T09:37:40;102254.38;;;14.39;88.16
76627;BME280;65519;53.230;10.390;2023-10-08T09:40:07;102258.88;;;14.45;86.95
76627;BME280;65519;53.230;10.390;2023-10-08T09:42:41;102257.03;;;14.50;83.83
76627;BME280;65519;53.230;10.390;2023-10-08T09:45:08;102269.38;;;14.75;83.37
76627;BME280;65519;53.230;10.390;2023-10-08T09:47:38;102263.38;;;14.78;86.51
76627;BME280;65519;53.230;10.390;2023-10-08T09:50:09;102277.22;;;14.93;86.43
76627;BME280;65519;53.230;10.390;2023-10-08T09:52:42;102288.84;;;15.00;86.45
76627;BME280;65519;53.230;10.390;2023-10-08T09:55:12;102295.47;;;15.04;79.95
76627;BME280;65519;53.230;10.390;2023-10-08T09:57:38;102300.03;;;15.20;83.89
76627;BME280;65519;53.230;10.390;2023-10-08T10:00:08;102296.88;;;15.33;78.13
76627;BME280;65519;53.230;10.390;2023-10-08T10:02:44;102293.13;;;15.50;77.23
76627;BME280;65519;53.230;10.390;2023-10-08T10:05:11;102294.91;;;15.61;77.18
76627;BME280;65519;53.230;10.390;2023-10-08T10:07:37;102295.53;;;15.73;71.64
76627;BME280;65519;53.230;10.390;2023-10-08T10:10:25;102284.34;;;15.85;75.63
76627;BME280;65519;53.230;10.390;2023-10-08T10:12:52;102286.31;;;15.89;72.79
76627;BME280;65519;53.230;10.390;2023-10-08T10:15:21;102295.53;;;15.68;66.76
76627;BME280;65519;53.230;10.390;2023-10-08T10:17:47;102290.69;;;15.85;72.70
76627;BME280;65519;53.230;10.390;2023-10-08T10:20:15;102289.72;;;15.64;76.09
76627;BME280;65519;53.230;10.390;2023-10-08T10:22:40;102290.88;;;15.74;71.32
76627;BME280;65519;53.230;10.390;2023-10-08T10:25:09;102285.94;;;15.44;72.16
76627;BME280;65519;53.230;10.390;2023-10-08T10:30:33;102303.00;;;15.46;72.47
76627;BME280;65519;53.230;10.390;2023-10-08T10:33:02;102296.09;;;15.75;74.53
76627;BME280;65519;53.230;10.390;2023-10-08T10:35:31;102302.88;;;15.62;68.66
76627;BME280;65519;53.230;10.390;2023-10-08T10:37:58;102303.16;;;15.61;72.84
76627;BME280;65519;53.230;10.390;2023-10-08T10:40:29;102299.69;;;15.44;69.72
76627;BME280;65519;53.230;10.390;2023-10-08T10:42:56;102300.72;;;15.38;70.84
76627;BME280;65519;53.230;10.390;2023-10-08T10:45:21;102309.88;;;15.16;68.58
76627;BME280;65519;53.230;10.390;2023-10-08T10:48:05;102307.00;;;15.01;72.28
76627;BME280;65519;53.230;10.390;2023-10-08T10:50:47;102316.31;;;15.00;71.63
76627;BME280;65519;53.230;10.390;2023-10-08T10:53:34;102306.06;;;14.90;75.07
76627;BME280;65519;53.230;10.390;2023-10-08T10:56:18;102311.06;;;14.72;67.13
76627;BME280;65519;53.230;10.390;2023-10-08T10:58:47;102304.06;;;14.59;68.47
76627;BME280;65519;53.230;10.390;2023-10-08T11:01:22;102301.56;;;14.57;72.40
76627;BME280;65519;53.230;10.390;2023-10-08T11:03:52;102298.38;;;14.66;66.81
76627;BME280;65519;53.230;10.390;2023-10-08T11:06:22;102300.66;;;14.74;66.35
76627;BME280;65519;53.230;10.390;2023-10-08T11:08:51;102288.72;;;14.63;63.99
76627;BME280;65519;53.230;10.390;2023-10-08T11:11:18;102295.56;;;14.60;62.75
76627;BME280;65519;53.230;10.390;2023-10-08T11:13:44;102288.91;;;14.78;65.96
76627;BME280;65519;53.230;10.390;2023-10-08T11:16:17;102282.84;;;15.03;63.40
76627;BME280;65519;53.230;10.390;2023-10-08T11:18:45;102276.63;;;15.13;59.58
76627;BME280;65519;53.230;10.390;2023-10-08T11:21:16;102254.91;;;15.48;60.85
76627;BME280;65519;53.230;10.390;2023-10-08T11:23:43;102243.75;;;15.60;60.51
76627;BME280;65519;53.230;10.390;2023-10-08T11:26:12;102253.56;;;15.88;60.98
76627;BME280;65519;53.230;10.390;2023-10-08T11:28:40;102250.41;;;16.11;62.45
76627;BME280;65519;53.230;10.390;2023-10-08T11:31:13;102244.44;;;16.44;64.60
76627;BME280;65519;53.230;10.390;2023-10-08T11:33:43;102233.50;;;16.55;61.69
76627;BME280;65519;53.230;10.390;2023-10-08T11:36:22;102244.75;;;16.43;59.95
76627;BME280;65519;53.230;10.390;2023-10-08T11:38:55;102237.47;;;16.17;57.71
76627;BME280;65519;53.230;10.390;2023-10-08T11:41:27;102229.13;;;16.01;58.27
76627;BME280;65519;53.230;10.390;2023-10-08T11:43:55;102232.81;;;16.17;58.88
76627;BME280;65519;53.230;10.390;2023-10-08T11:48:52;102250.78;;;16.45;59.05
76627;BME280;65519;53.230;10.390;2023-10-08T11:51:17;102244.72;;;16.48;63.26
76627;BME280;65519;53.230;10.390;2023-10-08T11:53:44;102249.94;;;16.44;57.63
76627;BME280;65519;53.230;10.390;2023-10-08T11:56:11;102247.59;;;16.73;60.61
76627;BME280;65519;53.230;10.390;2023-10-08T11:58:41;102246.22;;;16.71;54.51
76627;BME280;65519;53.230;10.390;2023-10-08T12:01:12;102257.13;;;16.56;53.12
76627;BME280;65519;53.230;10.390;2023-10-08T12:03:46;102260.69;;;16.46;55.80
76627;BME280;65519;53.230;10.390;2023-10-08T12:06:16;102257.94;;;16.46;51.69
76627;BME280;65519;53.230;10.390;2023-10-08T12:08:49;102250.78;;;16.45;55.13
76627;BME280;65519;53.230;10.390;2023-10-08T12:11:19;102265.47;;;16.71;59.16
76627;BME280;65519;53.230;10.390;2023-10-08T12:13:44;102259.41;;;16.64;53.59
76627;BME280;65519;53.230;10.390;2023-10-08T12:16:17;102263.44;;;16.41;50.13
76627;BME280;65519;53.230;10.390;2023-10-08T12:18:49;102259.53;;;16.27;51.27
76627;BME280;65519;53.230;10.390;2023-10-08T12:21:19;102253.97;;;16.17;48.92
76627;BME280;65519;53.230;10.390;2023-10-08T12:23:45;102261.78;;;16.45;47.48
76627;BME280;65519;53.230;10.390;2023-10-08T12:26:12;102261.03;;;16.55;48.04
76627;BME280;65519;53.230;10.390;2023-10-08T12:28:42;102269.06;;;16.76;48.34
76627;BME280;65519;53.230;10.390;2023-10-08T12:31:14;102261.44;;;17.29;52.44
76627;BME280;65519;53.230;10.390;2023-10-08T12:33:46;102260.84;;;17.58;49.92
76627;BME280;65519;53.230;10.390;2023-10-08T12:36:12;102255.06;;;17.59;45.76
76627;BME280;65519;53.230;10.390;2023-10-08T12:38:39;102241.00;;;17.20;46.58
76627;BME280;65519;53.230;10.390;2023-10-08T12:41:07;102242.66;;;17.36;46.46
76627;BME280;65519;53.230;10.390;2023-10-08T12:43:40;102237.97;;;17.32;46.84
76627;BME280;65519;53.230;10.390;2023-10-08T12:46:08;102240.44;;;17.33;45.41
76627;BME280;65519;53.230;10.390;2023-10-08T12:48:41;102229.41;;;17.53;45.16
76627;BME280;65519;53.230;10.390;2023-10-08T12:51:09;102222.00;;;17.29;45.34
76627;BME280;65519;53.230;10.390;2023-10-08T12:53:36;102216.78;;;17.07;48.35
76627;BME280;65519;53.230;10.390;2023-10-08T12:56:07;102219.53;;;17.07;49.10
76627;BME280;65519;53.230;10.390;2023-10-08T12:58:41;102213.13;;;16.66;50.12
76627;BME280;65519;53.230;10.390;2023-10-08T13:01:09;102228.75;;;16.45;51.29
76627;BME280;65519;53.230;10.390;2023-10-08T13:03:36;102235.03;;;16.20;52.06